sim
Sign-in with your pilot id or email,
or register
Callsign
Passwort

Schedule Details

Flight Number: DLH1865
Departure: Milan Malpensa Airport (LIMC) at 05:15
Arrival: Munich Airport (EDDM) at 06:25
Route: Lufthansa Passenger Schedule. Enter filed route here before submitting Pirep.

Weather Information
Getting current METAR information for LIMC 220120Z 05004KT 9999 BKN060 18/16 Q1015 NOSIG
Getting current METAR information for EDDM 220120Z 03001KT 4000 0700N R08L/0400D R08R/1900D BCFG NSC 08/08 Q1015 TEMPO 2500

Schedule Frequency

Route Map